Des Moines, Washington
Current Conditions -  °F | °C
As of 8:53 AM on Saturday 22 Nov 2014 (Local Time) from KSEA Reporting Station
Overcast Overcast  
Wind Chill: 39°   Ceiling: 5000
Heat Index: 45°   Visibility: 10mi
Dew Point: 40°   Wind: 14mph
Humidity: 82%   Direction: 200°SSW
Pressure: 29.73"   Gusts: 24mph
Location:  47.41°N, 122.31°W
Report Text: KSEA 221653Z 20012G21KT 10SM FEW010 OVC050 07/04 A2973 RMK AO2 SLP075 T00720044
Loading
Personal Weather Stations






























Interactive Weather Map New forecast layout! Learn more

10-Day Weather Forecast

Advertisements
Track Severe Weather on mobile